Time;durP1;ratioP1;P1;durP2;ratioP2;P2;SDS_P1;SDS_P2;PMS_P1;PMS_P2;Temp;Humidity;BMP_temperature;BMP_pressure;BME280_temperature;BME280_humidity;BME280_pressure;Samples;Min_cycle;Max_cycle;Signal;HPM_P1;HPM_P2
2023/07/21 00:11:42;;;;;;;14.75;8.23;;;;;;;25.77;100.00;99130.63;30860827;28;20053;-75
2023/07/21 00:26:45;;;;;;;13.10;7.82;;;;;;;25.94;100.00;99130.91;30856072;28;20055;-75
2023/07/21 00:41:47;;;;;;;11.50;7.23;;;;;;;25.95;100.00;99115.72;30855406;28;20078;-74
2023/07/21 00:56:49;;;;;;;10.48;7.30;;;;;;;25.83;100.00;99067.28;30854939;28;20089;-74
2023/07/21 01:11:52;;;;;;;12.97;6.87;;;;;;;25.93;100.00;99048.06;30857539;28;20133;-74
2023/07/21 01:26:55;;;;;;;11.77;7.60;;;;;;;26.08;100.00;99071.09;30874126;28;20065;-75
2023/07/21 01:42:00;;;;;;;18.35;10.02;;;;;;;26.23;100.00;99062.06;30872951;28;20055;-74
2023/07/21 01:57:05;;;;;;;12.25;9.52;;;;;;;26.48;100.00;99104.09;30870174;28;20054;-75
2023/07/21 02:12:11;;;;;;;11.70;9.05;;;;;;;26.39;100.00;99124.09;30870340;28;20078;-75
2023/07/21 02:27:13;;;;;;;12.20;7.88;;;;;;;26.33;100.00;99154.88;30869717;28;20515;-74
2023/07/21 02:42:14;;;;;;;11.82;7.55;;;;;;;26.43;100.00;99171.78;30867157;28;20155;-74
2023/07/21 02:57:17;;;;;;;12.23;7.88;;;;;;;26.52;100.00;99235.25;30869031;28;20456;-74
2023/07/21 03:12:18;;;;;;;13.03;8.30;;;;;;;26.46;100.00;99262.50;30867812;28;20512;-76
2023/07/21 03:27:21;;;;;;;11.02;8.27;;;;;;;26.85;100.00;99286.44;30860775;28;20090;-75
2023/07/21 03:42:23;;;;;;;13.97;8.33;;;;;;;27.67;100.00;99339.47;30863949;28;20497;-77
2023/07/21 03:57:25;;;;;;;10.57;7.57;;;;;;;28.25;100.00;99368.56;30866217;28;20143;-74
2023/07/21 04:12:28;;;;;;;11.32;8.43;;;;;;;28.67;100.00;99414.31;30858615;28;20074;-74
2023/07/21 04:27:30;;;;;;;13.48;9.35;;;;;;;29.03;100.00;99427.31;30853835;28;20081;-74
2023/07/21 04:42:33;;;;;;;12.30;7.97;;;;;;;29.55;100.00;99492.75;30855813;28;20461;-75
2023/07/21 04:57:35;;;;;;;9.75;7.78;;;;;;;29.75;100.00;99535.75;30868608;28;20066;-76
2023/07/21 05:12:37;;;;;;;12.10;9.00;;;;;;;29.98;100.00;99556.00;30878484;28;20053;-76
2023/07/21 05:27:39;;;;;;;14.60;9.98;;;;;;;30.21;100.00;99583.16;30881352;28;20456;-73
2023/07/21 05:42:41;;;;;;;;;;;;;;;30.41;98.43;99624.09;30876506;28;20094;-74
2023/07/21 05:57:44;;;;;;;11.40;8.97;;;;;;;30.79;100.00;99609.88;30878945;28;19926;-77
2023/07/21 06:12:46;;;;;;;12.82;8.18;;;;;;;31.20;100.00;99633.69;30873469;28;20042;-77
2023/07/21 06:27:48;;;;;;;11.88;7.95;;;;;;;31.35;100.00;99656.00;30883784;28;20079;-79
2023/07/21 06:42:50;;;;;;;8.77;6.53;;;;;;;31.58;84.15;99697.88;30882001;28;20500;-79
2023/07/21 06:57:54;;;;;;;8.27;6.40;;;;;;;32.09;93.85;99691.56;30876639;28;20389;-78
2023/07/21 07:12:56;;;;;;;7.82;5.57;;;;;;;32.63;85.71;99707.78;30866042;28;20042;-80
2023/07/21 07:27:58;;;;;;;7.93;6.10;;;;;;;33.05;84.07;99718.84;30873543;28;20577;-77
2023/07/21 07:43:00;;;;;;;8.75;6.93;;;;;;;33.33;85.89;99732.31;30874365;28;20078;-80
2023/07/21 07:58:03;;;;;;;7.53;6.20;;;;;;;33.80;77.58;99738.69;30866308;28;20097;-79
2023/07/21 08:13:07;;;;;;;7.18;5.93;;;;;;;34.22;79.36;99744.66;30865323;28;20130;-80
2023/07/21 08:28:09;;;;;;;12.40;6.63;;;;;;;34.70;75.30;99758.00;30869639;28;20504;-79
2023/07/21 08:43:11;;;;;;;10.13;6.90;;;;;;;34.86;66.79;99781.72;30870475;28;20050;-79
2023/07/21 08:58:14;;;;;;;9.77;7.32;;;;;;;35.35;65.59;99785.19;30870118;28;20479;-81
2023/07/21 09:13:18;;;;;;;8.77;7.43;;;;;;;35.84;57.84;99789.28;30864916;28;20548;-79
2023/07/21 09:28:38;;;;;;;12.13;7.70;;;;;;;35.66;62.18;99795.75;30862644;28;20082;-81
2023/07/21 09:43:41;;;;;;;7.90;6.40;;;;;;;36.37;57.63;99804.09;30871787;28;20062;-79
2023/07/21 09:59:02;;;;;;;7.40;6.38;;;;;;;37.45;50.94;99803.19;30886613;28;20535;-79
2023/07/21 10:14:05;;;;;;;7.45;6.70;;;;;;;36.93;56.91;99805.53;30880146;28;20552;-78
2023/07/21 10:29:16;;;;;;;6.32;5.72;;;;;;;38.29;44.39;99819.50;30885786;28;20110;-79
2023/07/21 10:44:19;;;;;;;10.60;7.60;;;;;;;38.71;45.57;99810.63;30866662;28;20051;-78
2023/07/21 10:59:21;;;;;;;7.80;6.90;;;;;;;38.76;43.69;99829.31;30878402;28;20459;-80
2023/07/21 11:14:26;;;;;;;9.15;7.78;;;;;;;37.03;43.62;99832.38;30878270;28;20086;-78
2023/07/21 11:29:32;;;;;;;9.60;8.50;;;;;;;37.20;43.67;99826.41;30869985;28;20051;-77
2023/07/21 11:44:37;;;;;;;10.93;9.00;;;;;;;35.66;46.33;99838.84;30869873;28;20593;-76
2023/07/21 11:59:39;;;;;;;10.48;7.93;;;;;;;35.04;46.56;99832.31;30874348;28;20535;-77
2023/07/21 12:14:41;;;;;;;12.40;7.45;;;;;;;34.73;47.68;99840.63;30871191;28;20047;-77
2023/07/21 12:29:43;;;;;;;9.93;7.15;;;;;;;33.77;48.23;99855.25;30867419;28;20060;-79
2023/07/21 12:44:47;;;;;;;8.82;6.90;;;;;;;33.84;48.28;99845.97;30869261;28;20393;-81
2023/07/21 12:59:49;;;;;;;6.45;5.18;;;;;;;33.52;48.63;99863.88;30866117;28;20141;-79
2023/07/21 13:14:51;;;;;;;5.60;4.13;;;;;;;33.31;48.55;99869.22;30867972;28;20061;-82
2023/07/21 13:29:53;;;;;;;4.50;4.03;;;;;;;32.95;48.92;99872.69;30888819;28;20461;-78
2023/07/21 13:44:55;;;;;;;4.95;3.40;;;;;;;32.85;49.42;99875.41;30894004;28;20047;-80
2023/07/21 13:59:57;;;;;;;4.40;3.65;;;;;;;32.65;49.34;99882.16;30889557;28;20074;-82
2023/07/21 14:14:59;;;;;;;5.90;5.18;;;;;;;32.41;49.74;99900.56;30885214;28;20054;-80
2023/07/21 14:30:03;;;;;;;4.63;4.15;;;;;;;32.30;49.85;99915.09;30877471;28;20493;-80
2023/07/21 14:45:07;;;;;;;4.57;4.00;;;;;;;31.90;50.76;99915.91;30877270;28;20047;-82
2023/07/21 15:00:16;;;;;;;7.78;4.63;;;;;;;31.80;51.10;99952.28;30878260;28;20409;-82
2023/07/21 15:15:22;;;;;;;5.38;4.10;;;;;;;31.33;51.29;99969.88;30886293;28;20058;-81
2023/07/21 15:30:24;;;;;;;5.35;4.35;;;;;;;31.07;51.45;99973.13;30881798;28;20059;-82
2023/07/21 15:45:26;;;;;;;6.82;4.78;;;;;;;30.77;51.58;100004.75;30884906;28;20058;-81
2023/07/21 16:00:28;;;;;;;7.13;5.10;;;;;;;30.63;51.32;100003.44;30872750;28;20133;-79
2023/07/21 16:15:30;;;;;;;7.30;4.18;;;;;;;30.51;51.84;100017.03;30874651;28;20074;-79
2023/07/21 16:30:32;;;;;;;7.15;6.40;;;;;;;30.02;56.52;100031.34;30868339;28;20078;-80
2023/07/21 16:45:34;;;;;;;9.52;6.85;;;;;;;29.70;59.85;100045.75;30862525;28;20078;-80
2023/07/21 17:00:36;;;;;;;;;;;;;;;29.50;64.44;100055.75;30866681;28;20129;-80
2023/07/21 17:15:38;;;;;;;11.60;7.18;;;;;;;29.16;64.64;100073.41;30862414;28;19929;-78
2023/07/21 17:30:42;;;;;;;16.30;9.00;;;;;;;28.81;66.84;100083.19;30865419;28;20075;-81
2023/07/21 17:45:45;;;;;;;12.85;8.65;;;;;;;28.59;67.94;100120.00;30863404;28;20150;-77
2023/07/21 18:00:48;;;;;;;15.20;10.02;;;;;;;28.13;70.50;100138.25;30861105;28;20053;-79
2023/07/21 18:15:50;;;;;;;15.88;12.43;;;;;;;28.01;70.49;100148.16;30881007;28;20105;-77
2023/07/21 18:30:52;;;;;;;9.73;7.47;;;;;;;27.80;68.24;100139.69;30879621;28;20046;-78
2023/07/21 18:45:56;;;;;;;7.87;6.37;;;;;;;27.59;67.18;100161.16;30876310;28;20101;-79
2023/07/21 19:00:58;;;;;;;9.13;6.60;;;;;;;27.40;68.19;100164.72;30889252;28;20105;-78
2023/07/21 19:16:04;;;;;;;7.87;5.40;;;;;;;27.43;68.56;100172.03;30877786;28;20050;-78
2023/07/21 19:31:07;;;;;;;17.80;10.52;;;;;;;27.18;68.62;100176.25;30874861;28;20403;-80
2023/07/21 19:46:15;;;;;;;9.30;5.57;;;;;;;26.85;69.87;100174.75;30873918;28;20069;-79
2023/07/21 20:01:17;;;;;;;10.18;4.72;;;;;;;26.53;70.82;100173.94;30881821;28;20051;-81
2023/07/21 20:16:19;;;;;;;15.03;10.87;;;;;;;26.24;73.03;100181.13;30877563;28;20097;-78
2023/07/21 20:31:21;;;;;;;10.47;5.27;;;;;;;26.14;72.96;100211.34;30866455;28;20053;-79
2023/07/21 20:46:23;;;;;;;10.27;6.17;;;;;;;25.89;74.61;100202.28;30865406;28;20110;-80
2023/07/21 21:01:26;;;;;;;7.27;3.70;;;;;;;25.90;74.83;100198.22;30866406;28;20062;-77
2023/07/21 21:16:28;;;;;;;8.48;3.55;;;;;;;25.81;74.21;100206.91;30861221;28;20053;-76
2023/07/21 21:31:31;;;;;;;5.97;3.53;;;;;;;25.72;74.59;100210.81;30861402;28;20388;-79
2023/07/21 21:46:33;;;;;;;5.60;4.20;;;;;;;25.34;75.90;100204.28;30879079;28;20572;-77
2023/07/21 22:01:35;;;;;;;6.22;3.67;;;;;;;25.55;75.92;100201.81;30885609;28;20042;-77
2023/07/21 22:16:37;;;;;;;10.70;4.18;;;;;;;25.35;77.98;100194.69;30882275;28;20086;-78
2023/07/21 22:31:40;;;;;;;4.80;3.28;;;;;;;25.33;77.74;100197.22;30878395;28;20050;-75
2023/07/21 22:46:42;;;;;;;4.37;3.27;;;;;;;25.18;79.17;100251.66;30875733;28;20082;-77
2023/07/21 23:01:44;;;;;;;5.90;3.53;;;;;;;25.10;78.97;100240.34;30872878;28;20043;-78
2023/07/21 23:16:46;;;;;;;5.45;3.13;;;;;;;25.19;80.04;100242.81;30871680;28;20062;-76
2023/07/21 23:31:48;;;;;;;4.00;2.95;;;;;;;25.02;80.71;100272.72;30868927;28;20491;-76
2023/07/21 23:46:51;;;;;;;4.20;3.38;;;;;;;24.91;81.99;100240.19;30868200;28;20062;-77
